Time;durP1;ratioP1;P1;durP2;ratioP2;P2;SDS_P1;SDS_P2;PMS_P1;PMS_P2;Temp;Humidity;BMP_temperature;BMP_pressure;BME280_temperature;BME280_humidity;BME280_pressure;Samples;Min_cycle;Max_cycle;Signal;HPM_P1;HPM_P2
2021/12/08 00:02:16;;;;;;;7.30;2.87;;;;;;;;;;5001218;28;20193;-73
2021/12/08 00:04:42;;;;;;;10.03;3.10;;;;;;;;;;4999267;28;20654;-73
2021/12/08 00:07:08;;;;;;;14.57;3.20;;;;;;;;;;5008691;28;20187;-73
2021/12/08 00:09:47;;;;;;;6.13;3.27;;;;;;;;;;5001150;28;21847;-74
2021/12/08 00:14:59;;;;;;;10.33;3.20;;;;;;;;;;4998810;28;20288;-73
2021/12/08 00:17:24;;;;;;;10.53;3.50;;;;;;;;;;5003263;28;20239;-74
2021/12/08 00:19:50;;;;;;;11.43;3.57;;;;;;;;;;5005994;28;20674;-74
2021/12/08 00:22:16;;;;;;;9.53;3.03;;;;;;;;;;5003798;28;20190;-73
2021/12/08 00:24:41;;;;;;;5.33;2.80;;;;;;;;;;5003853;28;20539;-74
2021/12/08 00:27:07;;;;;;;10.23;3.40;;;;;;;;;;5002135;28;20189;-73
2021/12/08 00:29:33;;;;;;;13.47;2.93;;;;;;;;;;5008028;28;20221;-75
2021/12/08 00:31:59;;;;;;;8.27;2.73;;;;;;;;;;4998495;28;20595;-73
2021/12/08 00:34:25;;;;;;;11.63;3.20;;;;;;;;;;5007263;28;20616;-73
2021/12/08 00:36:55;;;;;;;10.07;3.30;;;;;;;;;;5007427;28;20216;-73
2021/12/08 00:39:21;;;;;;;8.83;3.00;;;;;;;;;;5008157;28;20171;-73
2021/12/08 00:41:47;;;;;;;8.90;2.37;;;;;;;;;;5009426;28;20186;-72
2021/12/08 00:44:12;;;;;;;8.50;2.63;;;;;;;;;;5008904;28;20195;-73
2021/12/08 00:46:38;;;;;;;8.83;2.67;;;;;;;;;;5003757;28;20558;-73
2021/12/08 00:49:05;;;;;;;7.07;2.60;;;;;;;;;;5011147;28;20182;-73
2021/12/08 00:51:31;;;;;;;12.10;2.80;;;;;;;;;;5012132;28;20202;-73
2021/12/08 00:53:56;;;;;;;8.40;3.17;;;;;;;;;;5001379;28;20501;-73
2021/12/08 00:56:22;;;;;;;7.37;2.60;;;;;;;;;;5008631;28;20210;-73
2021/12/08 00:58:47;;;;;;;11.53;3.17;;;;;;;;;;5003839;28;20198;-72
2021/12/08 01:01:14;;;;;;;7.20;2.27;;;;;;;;;;5010013;28;20560;-72
2021/12/08 01:03:40;;;;;;;7.10;2.47;;;;;;;;;;5005128;28;20195;-73
2021/12/08 01:06:05;;;;;;;5.77;2.40;;;;;;;;;;5012180;28;20198;-72
2021/12/08 01:08:32;;;;;;;7.67;2.37;;;;;;;;;;5001594;28;20197;-73
2021/12/08 01:11:02;;;;;;;5.17;2.30;;;;;;;;;;5006260;28;20198;-73
2021/12/08 01:13:28;;;;;;;8.43;2.30;;;;;;;;;;4998984;28;20566;-72
2021/12/08 01:15:56;;;;;;;4.73;2.60;;;;;;;;;;5003758;28;20257;-72
2021/12/08 01:18:23;;;;;;;6.60;2.47;;;;;;;;;;5000649;28;20238;-73
2021/12/08 01:20:50;;;;;;;5.10;2.17;;;;;;;;;;5010500;28;20212;-72
2021/12/08 01:23:16;;;;;;;5.03;2.07;;;;;;;;;;5001711;28;20217;-73
2021/12/08 01:25:44;;;;;;;5.40;2.00;;;;;;;;;;5010066;28;20219;-72
2021/12/08 01:28:09;;;;;;;6.10;1.80;;;;;;;;;;5010479;28;20191;-72
2021/12/08 01:30:35;;;;;;;5.33;2.07;;;;;;;;;;5000090;28;20202;-73
2021/12/08 01:33:00;;;;;;;9.47;2.27;;;;;;;;;;5000980;28;20214;-73
2021/12/08 01:35:26;;;;;;;10.63;2.33;;;;;;;;;;5000549;28;20199;-73
2021/12/08 01:37:52;;;;;;;7.30;2.40;;;;;;;;;;5023966;28;20278;-73
2021/12/08 01:40:18;;;;;;;6.37;2.00;;;;;;;;;;4997388;28;20632;-73
2021/12/08 01:42:47;;;;;;;6.23;2.57;;;;;;;;;;5009826;28;20194;-73
2021/12/08 01:48:05;;;;;;;6.87;2.00;;;;;;;;;;5013716;28;20248;-73
2021/12/08 01:50:30;;;;;;;5.87;2.20;;;;;;;;;;4997086;28;20268;-73
2021/12/08 01:52:56;;;;;;;4.47;1.90;;;;;;;;;;5007222;28;20209;-73
2021/12/08 01:55:21;;;;;;;6.43;1.90;;;;;;;;;;4998451;28;20215;-73
2021/12/08 01:57:47;;;;;;;4.77;2.23;;;;;;;;;;5010660;28;20698;-73
2021/12/08 02:00:22;;;;;;;5.80;1.97;;;;;;;;;;5000252;28;20202;-73
2021/12/08 02:02:47;;;;;;;8.17;2.23;;;;;;;;;;5004793;28;20212;-73
2021/12/08 02:05:13;;;;;;;6.60;2.43;;;;;;;;;;5011394;28;20626;-73
2021/12/08 02:07:38;;;;;;;7.07;2.10;;;;;;;;;;4997645;28;20194;-73
2021/12/08 02:10:06;;;;;;;6.57;2.93;;;;;;;;;;5009437;28;20186;-73
2021/12/08 02:12:35;;;;;;;4.87;1.93;;;;;;;;;;4996291;28;20217;-73
2021/12/08 02:15:00;;;;;;;8.50;2.33;;;;;;;;;;5011192;28;20260;-73
2021/12/08 02:17:26;;;;;;;5.73;2.20;;;;;;;;;;4996766;28;20285;-73
2021/12/08 02:19:52;;;;;;;9.47;2.20;;;;;;;;;;5003510;28;20278;-73
2021/12/08 02:22:17;;;;;;;4.53;2.47;;;;;;;;;;4997017;28;20239;-73
2021/12/08 02:24:42;;;;;;;8.27;2.50;;;;;;;;;;5007459;28;20267;-73
2021/12/08 02:27:08;;;;;;;7.23;2.90;;;;;;;;;;4995956;28;21817;-73
2021/12/08 02:29:40;;;;;;;8.30;2.77;;;;;;;;;;5009474;28;20646;-73
2021/12/08 02:48:29;;;;;;;6.33;2.67;;;;;;;;;;4994718;28;20201;-73
2021/12/08 02:50:55;;;;;;;6.23;2.50;;;;;;;;;;5006187;28;20314;-73
2021/12/08 02:53:21;;;;;;;7.90;2.73;;;;;;;;;;4996625;28;20206;-73
2021/12/08 02:55:47;;;;;;;8.33;3.23;;;;;;;;;;5006258;28;20202;-72
2021/12/08 02:58:13;;;;;;;7.47;3.00;;;;;;;;;;4990265;28;20193;-72
2021/12/08 03:00:49;;;;;;;8.23;2.80;;;;;;;;;;5001819;28;20191;-73
2021/12/08 03:03:15;;;;;;;6.20;3.17;;;;;;;;;;4998311;28;20190;-72
2021/12/08 03:05:40;;;;;;;7.27;2.80;;;;;;;;;;4994573;28;20285;-73
2021/12/08 03:08:07;;;;;;;12.70;3.63;;;;;;;;;;5003786;28;20278;-73
2021/12/08 03:10:36;;;;;;;7.53;3.20;;;;;;;;;;4993010;28;20546;-73
2021/12/08 03:13:02;;;;;;;7.43;3.23;;;;;;;;;;5006055;28;20382;-72
2021/12/08 03:15:27;;;;;;;14.40;3.70;;;;;;;;;;4998491;28;20273;-72
2021/12/08 03:17:52;;;;;;;9.60;3.37;;;;;;;;;;5005047;28;20245;-73
2021/12/08 03:20:26;;;;;;;8.20;3.77;;;;;;;;;;4995997;28;20182;-72
2021/12/08 03:22:58;;;;;;;6.80;3.63;;;;;;;;;;5000020;28;20228;-72
2021/12/08 03:25:24;;;;;;;8.00;3.87;;;;;;;;;;4993863;28;20638;-72
2021/12/08 03:28:05;;;;;;;7.77;3.67;;;;;;;;;;5019080;28;20187;-72
2021/12/08 03:30:37;;;;;;;12.47;4.00;;;;;;;;;;4994089;28;20205;-72
2021/12/08 03:33:03;;;;;;;8.27;4.00;;;;;;;;;;5002542;28;20779;-72
2021/12/08 03:35:29;;;;;;;8.00;4.07;;;;;;;;;;5008809;28;20338;-72
2021/12/08 03:37:55;;;;;;;9.10;4.17;;;;;;;;;;5003456;28;20681;-72
2021/12/08 03:40:23;;;;;;;7.93;4.10;;;;;;;;;;4999885;28;20194;-72
2021/12/08 03:42:51;;;;;;;8.17;4.23;;;;;;;;;;5005099;28;20184;-72
2021/12/08 03:45:25;;;;;;;9.27;4.37;;;;;;;;;;5007245;28;20324;-72
2021/12/08 03:48:01;;;;;;;10.17;4.37;;;;;;;;;;4994675;28;20195;-72
2021/12/08 03:50:30;;;;;;;10.80;4.33;;;;;;;;;;4998450;28;20647;-72
2021/12/08 03:52:55;;;;;;;8.17;4.17;;;;;;;;;;4996298;28;20276;-72
2021/12/08 03:55:21;;;;;;;5.43;4.10;;;;;;;;;;5006706;28;20207;-72
2021/12/08 03:57:46;;;;;;;9.70;3.90;;;;;;;;;;4997480;28;20186;-72
2021/12/08 04:00:16;;;;;;;12.10;5.10;;;;;;;;;;5006396;28;20189;-72
2021/12/08 04:02:42;;;;;;;9.90;4.10;;;;;;;;;;4992068;28;20651;-73
2021/12/08 04:05:09;;;;;;;9.40;4.47;;;;;;;;;;5007887;28;20187;-72
2021/12/08 04:07:42;;;;;;;9.50;4.00;;;;;;;;;;4998444;28;20280;-72
2021/12/08 04:10:15;;;;;;;7.37;3.90;;;;;;;;;;5004640;28;20178;-72
2021/12/08 04:12:40;;;;;;;8.33;4.20;;;;;;;;;;4994172;28;20213;-72
2021/12/08 04:15:06;;;;;;;5.40;3.37;;;;;;;;;;5004769;28;20187;-73
2021/12/08 04:17:39;;;;;;;9.50;3.63;;;;;;;;;;4989073;28;20222;-72
2021/12/08 04:20:13;;;;;;;7.47;3.53;;;;;;;;;;5005112;28;20175;-72
2021/12/08 04:22:43;;;;;;;7.57;3.67;;;;;;;;;;4993211;28;21605;-72
2021/12/08 04:25:15;;;;;;;8.13;3.60;;;;;;;;;;5006170;28;20179;-73
2021/12/08 04:27:43;;;;;;;7.67;4.40;;;;;;;;;;4994462;28;20237;-72
2021/12/08 04:30:14;;;;;;;10.33;3.90;;;;;;;;;;5006656;28;20182;-72
2021/12/08 04:32:40;;;;;;;9.43;3.87;;;;;;;;;;5005493;28;20211;-73
2021/12/08 04:35:09;;;;;;;9.80;4.10;;;;;;;;;;4998008;28;20183;-73
2021/12/08 04:37:39;;;;;;;6.33;3.70;;;;;;;;;;5006145;28;20193;-72
2021/12/08 04:40:26;;;;;;;9.57;3.60;;;;;;;;;;4999711;28;20186;-72
2021/12/08 04:45:33;;;;;;;9.50;3.53;;;;;;;;;;5003830;28;20195;-72
2021/12/08 04:48:18;;;;;;;9.40;4.00;;;;;;;;;;5003595;28;20187;-72
2021/12/08 04:51:13;;;;;;;12.90;3.70;;;;;;;;;;4997152;28;20286;-72
2021/12/08 05:09:35;;;;;;;7.90;3.00;;;;;;;;;;4998215;28;20559;-72
2021/12/08 05:12:33;;;;;;;6.67;2.37;;;;;;;;;;4996802;28;20474;-72
2021/12/08 05:15:12;;;;;;;6.83;2.63;;;;;;;;;;5008267;28;20191;-72
2021/12/08 05:17:42;;;;;;;9.00;2.73;;;;;;;;;;4992976;28;20245;-72
2021/12/08 05:20:21;;;;;;;9.20;2.57;;;;;;;;;;5001807;28;20245;-72
2021/12/08 05:22:53;;;;;;;8.27;2.57;;;;;;;;;;4995962;28;20646;-73
2021/12/08 05:25:22;;;;;;;12.07;2.40;;;;;;;;;;5003517;28;20191;-72
2021/12/08 05:27:51;;;;;;;6.33;2.83;;;;;;;;;;5000379;28;20187;-72
2021/12/08 05:30:24;;;;;;;5.60;2.40;;;;;;;;;;5010053;28;20183;-72
2021/12/08 05:32:49;;;;;;;4.53;1.90;;;;;;;;;;4998868;28;20261;-72
2021/12/08 05:35:16;;;;;;;7.33;2.30;;;;;;;;;;5007857;28;20191;-72
2021/12/08 05:37:42;;;;;;;8.53;2.23;;;;;;;;;;5000768;28;20183;-72
2021/12/08 05:40:13;;;;;;;6.20;1.83;;;;;;;;;;5007487;28;20194;-72
2021/12/08 05:42:38;;;;;;;3.40;1.80;;;;;;;;;;5002207;28;20187;-72
2021/12/08 05:45:08;;;;;;;8.30;2.00;;;;;;;;;;5008598;28;20689;-72
2021/12/08 05:47:34;;;;;;;5.03;2.10;;;;;;;;;;5000237;28;20535;-72
2021/12/08 05:49:59;;;;;;;6.10;2.27;;;;;;;;;;5009188;28;20183;-72
2021/12/08 05:52:26;;;;;;;9.57;2.23;;;;;;;;;;4997539;28;20207;-72
2021/12/08 05:54:52;;;;;;;4.40;2.20;;;;;;;;;;5002603;28;20199;-72
2021/12/08 05:57:35;;;;;;;8.17;2.30;;;;;;;;;;5011681;28;20665;-73
2021/12/08 06:00:04;;;;;;;7.43;2.07;;;;;;;;;;5008535;28;20557;-73
2021/12/08 06:02:33;;;;;;;6.70;1.93;;;;;;;;;;5007025;28;21998;-73
2021/12/08 06:04:59;;;;;;;7.97;2.60;;;;;;;;;;5001239;28;20183;-73
2021/12/08 06:07:25;;;;;;;10.93;3.53;;;;;;;;;;5007984;28;20194;-73
2021/12/08 06:09:56;;;;;;;10.17;2.80;;;;;;;;;;4997893;28;20187;-73
2021/12/08 06:12:23;;;;;;;7.80;2.40;;;;;;;;;;5008023;28;20275;-73
2021/12/08 06:14:54;;;;;;;10.33;2.30;;;;;;;;;;5001859;28;20190;-71
2021/12/08 06:17:23;;;;;;;7.00;2.20;;;;;;;;;;5003612;28;20288;-72
2021/12/08 06:19:49;;;;;;;5.73;1.87;;;;;;;;;;5000395;28;20531;-72
2021/12/08 06:22:18;;;;;;;8.93;2.30;;;;;;;;;;5004430;28;20182;-72
2021/12/08 06:24:44;;;;;;;9.17;2.60;;;;;;;;;;4998390;28;20190;-72
2021/12/08 06:27:10;;;;;;;4.57;1.80;;;;;;;;;;4998285;28;20186;-72
2021/12/08 06:29:37;;;;;;;8.80;2.00;;;;;;;;;;5002931;28;24800;-72
2021/12/08 06:32:06;;;;;;;6.60;1.87;;;;;;;;;;5006608;28;20237;-72
2021/12/08 06:34:32;;;;;;;5.33;2.00;;;;;;;;;;4998649;28;20198;-72
2021/12/08 06:37:07;;;;;;;9.47;2.17;;;;;;;;;;5003436;28;20387;-72
2021/12/08 06:39:40;;;;;;;4.03;1.70;;;;;;;;;;5000381;28;20269;-72
2021/12/08 06:42:08;;;;;;;9.33;1.97;;;;;;;;;;5000618;28;20672;-72
2021/12/08 06:44:40;;;;;;;6.30;1.90;;;;;;;;;;5017108;28;20178;-72
2021/12/08 06:47:11;;;;;;;9.63;2.00;;;;;;;;;;5001368;28;20637;-72
2021/12/08 06:49:38;;;;;;;7.27;2.07;;;;;;;;;;5001018;28;20221;-72
2021/12/08 06:52:08;;;;;;;8.37;2.10;;;;;;;;;;4990087;28;20214;-72
2021/12/08 06:54:41;;;;;;;7.00;1.97;;;;;;;;;;5003169;28;20683;-72
2021/12/08 06:57:19;;;;;;;5.73;1.80;;;;;;;;;;5002411;28;20556;-72
2021/12/08 07:00:50;;;;;;;8.20;2.00;;;;;;;;;;5002070;28;20310;-72
2021/12/08 07:05:28;;;;;;;7.47;1.80;;;;;;;;;;5005338;28;20199;-72
2021/12/08 07:07:59;;;;;;;6.10;1.70;;;;;;;;;;4994409;28;20210;-72
2021/12/08 07:10:32;;;;;;;7.27;1.87;;;;;;;;;;4999825;28;20193;-73
2021/12/08 07:13:08;;;;;;;9.77;2.00;;;;;;;;;;4993445;28;20325;-72
2021/12/08 07:15:47;;;;;;;6.70;2.10;;;;;;;;;;5011040;28;20262;-72
2021/12/08 07:18:18;;;;;;;6.93;2.00;;;;;;;;;;4989938;28;20318;-72
2021/12/08 07:20:48;;;;;;;6.73;2.10;;;;;;;;;;5005356;28;20705;-72
2021/12/08 07:23:16;;;;;;;7.50;2.03;;;;;;;;;;4996502;28;20213;-73
2021/12/08 07:25:43;;;;;;;10.57;1.77;;;;;;;;;;4999245;28;20183;-72
2021/12/08 07:28:10;;;;;;;5.90;2.20;;;;;;;;;;4992255;28;20183;-72
2021/12/08 07:30:41;;;;;;;5.50;1.97;;;;;;;;;;4998934;28;20195;-72
2021/12/08 07:33:06;;;;;;;7.07;2.50;;;;;;;;;;4299096;28;10000804;-73
2021/12/08 07:35:42;;;;;;;5.03;1.60;;;;;;;;;;4996840;28;20246;-73
2021/12/08 07:38:10;;;;;;;6.60;1.60;;;;;;;;;;4989876;28;20641;-72
2021/12/08 07:40:42;;;;;;;9.47;1.97;;;;;;;;;;5000726;28;20564;-72
2021/12/08 07:43:12;;;;;;;6.17;1.47;;;;;;;;;;4988291;28;20187;-72
2021/12/08 07:45:43;;;;;;;11.13;1.50;;;;;;;;;;4995526;28;20229;-72
2021/12/08 07:48:12;;;;;;;5.63;1.53;;;;;;;;;;4999184;28;20631;-72
2021/12/08 07:50:48;;;;;;;8.97;2.60;;;;;;;;;;4993310;28;20197;-72
2021/12/08 07:53:17;;;;;;;7.43;1.57;;;;;;;;;;4999524;28;20261;-72
2021/12/08 07:55:48;;;;;;;7.77;1.60;;;;;;;;;;4989408;28;20230;-73
2021/12/08 07:58:16;;;;;;;5.00;1.27;;;;;;;;;;5002806;28;20191;-72
2021/12/08 08:01:06;;;;;;;6.10;2.03;;;;;;;;;;4992298;28;20195;-72
2021/12/08 08:03:33;;;;;;;11.03;2.00;;;;;;;;;;4982668;28;20194;-73
2021/12/08 08:06:04;;;;;;;11.87;2.00;;;;;;;;;;4991515;28;20333;-72
2021/12/08 08:08:31;;;;;;;9.90;2.10;;;;;;;;;;5001584;28;20190;-72
2021/12/08 08:11:06;;;;;;;9.70;1.80;;;;;;;;;;4992410;28;20204;-72
2021/12/08 08:13:32;;;;;;;5.20;1.63;;;;;;;;;;4999567;28;20300;-73
2021/12/08 08:16:05;;;;;;;9.10;1.80;;;;;;;;;;4994895;28;20206;-72
2021/12/08 08:18:33;;;;;;;10.57;2.20;;;;;;;;;;5014315;28;20723;-72
2021/12/08 08:21:04;;;;;;;8.63;1.47;;;;;;;;;;5004035;28;20194;-72
2021/12/08 08:23:31;;;;;;;12.57;2.00;;;;;;;;;;5014829;28;20256;-72
2021/12/08 08:26:00;;;;;;;7.33;1.73;;;;;;;;;;4999138;28;20271;-72
2021/12/08 08:28:25;;;;;;;9.10;1.60;;;;;;;;;;5007799;28;20191;-72
2021/12/08 08:31:03;;;;;;;14.20;1.97;;;;;;;;;;4999925;28;21121;-72
2021/12/08 08:33:30;;;;;;;7.23;1.80;;;;;;;;;;5005139;28;20242;-72
2021/12/08 08:36:04;;;;;;;11.87;2.20;;;;;;;;;;5008201;28;20549;-72
2021/12/08 08:38:35;;;;;;;5.37;1.40;;;;;;;;;;5006552;28;20225;-72
2021/12/08 08:41:25;;;;;;;9.13;1.73;;;;;;;;;;5009946;28;20273;-72
2021/12/08 08:43:53;;;;;;;7.20;1.70;;;;;;;;;;5005851;28;20632;-73
2021/12/08 08:46:28;;;;;;;11.20;2.60;;;;;;;;;;5012926;28;20197;-73
2021/12/08 08:49:00;;;;;;;13.10;1.67;;;;;;;;;;5007171;28;20329;-73
2021/12/08 08:51:34;;;;;;;10.57;1.80;;;;;;;;;;5014143;28;20195;-72
2021/12/08 08:54:06;;;;;;;9.53;1.70;;;;;;;;;;5008361;28;20601;-72
2021/12/08 08:56:36;;;;;;;13.67;2.13;;;;;;;;;;5009240;28;20218;-72
2021/12/08 08:59:12;;;;;;;12.03;2.23;;;;;;;;;;4995395;28;20191;-73
2021/12/08 09:01:42;;;;;;;11.00;1.77;;;;;;;;;;5018971;28;20190;-72
2021/12/08 09:04:12;;;;;;;8.67;1.50;;;;;;;;;;4993345;28;20549;-72
2021/12/08 09:06:43;;;;;;;6.13;1.40;;;;;;;;;;5008213;28;20710;-73
2021/12/08 09:09:13;;;;;;;11.10;1.87;;;;;;;;;;4988632;28;20204;-72
2021/12/08 09:11:43;;;;;;;11.73;2.07;;;;;;;;;;5007981;28;20206;-73
2021/12/08 09:14:15;;;;;;;7.30;1.60;;;;;;;;;;5005602;28;20222;-72
2021/12/08 09:16:54;;;;;;;11.13;2.13;;;;;;;;;;5005507;28;20654;-73
2021/12/08 09:19:30;;;;;;;11.33;2.23;;;;;;;;;;5003624;28;20559;-73
2021/12/08 09:22:25;;;;;;;10.43;1.83;;;;;;;;;;5016936;28;20239;-73
2021/12/08 09:25:12;;;;;;;10.87;2.13;;;;;;;;;;5005384;28;20190;-72
2021/12/08 09:27:52;;;;;;;8.63;1.80;;;;;;;;;;5016064;28;20269;-73
2021/12/08 09:30:24;;;;;;;8.67;1.90;;;;;;;;;;5000976;28;20249;-73
2021/12/08 09:32:58;;;;;;;12.10;1.80;;;;;;;;;;5016669;28;20237;-72
2021/12/08 09:35:30;;;;;;;8.07;1.70;;;;;;;;;;4992155;28;20194;-72
2021/12/08 09:38:05;;;;;;;11.90;1.80;;;;;;;;;;5015250;28;20191;-73
2021/12/08 09:41:00;;;;;;;12.60;1.73;;;;;;;;;;4997133;28;20205;-72
2021/12/08 09:43:58;;;;;;;6.80;1.50;;;;;;;;;;5006516;28;20184;-72
2021/12/08 09:46:32;;;;;;;5.20;1.30;;;;;;;;;;4994960;28;20541;-72
2021/12/08 09:48:58;;;;;;;6.57;2.77;;;;;;;;;;5006871;28;20316;-72
2021/12/08 09:51:24;;;;;;;6.17;1.43;;;;;;;;;;5005840;28;20657;-73
2021/12/08 09:53:51;;;;;;;8.50;1.60;;;;;;;;;;5006065;28;20720;-72
2021/12/08 09:56:17;;;;;;;6.27;1.60;;;;;;;;;;5003304;28;20263;-71
2021/12/08 09:58:44;;;;;;;9.67;1.67;;;;;;;;;;5009435;28;20201;-72
2021/12/08 10:01:15;;;;;;;9.23;1.53;;;;;;;;;;5001854;28;20240;-72
2021/12/08 10:03:40;;;;;;;8.83;1.60;;;;;;;;;;5004021;28;20668;-72
2021/12/08 10:06:08;;;;;;;10.93;1.53;;;;;;;;;;4994778;28;20553;-72
2021/12/08 10:08:34;;;;;;;7.93;1.50;;;;;;;;;;5009612;28;20248;-72
2021/12/08 10:10:59;;;;;;;9.37;1.60;;;;;;;;;;5001473;28;20701;-72
2021/12/08 10:13:25;;;;;;;7.07;1.60;;;;;;;;;;5004179;28;20365;-71
2021/12/08 10:15:50;;;;;;;5.33;1.70;;;;;;;;;;5017008;28;20197;-72
2021/12/08 10:18:15;;;;;;;8.47;1.63;;;;;;;;;;4998678;28;20258;-72
2021/12/08 10:21:01;;;;;;;3.80;1.30;;;;;;;;;;5008729;28;20187;-72
2021/12/08 10:23:35;;;;;;;4.40;1.50;;;;;;;;;;5005959;28;20190;-72
2021/12/08 10:26:08;;;;;;;6.83;1.50;;;;;;;;;;5008522;28;20555;-72
2021/12/08 10:28:44;;;;;;;9.70;2.00;;;;;;;;;;5003912;28;20190;-72
2021/12/08 10:31:26;;;;;;;5.57;1.30;;;;;;;;;;5000759;28;20191;-72
2021/12/08 10:39:18;;;;;;;9.90;1.43;;;;;;;;;;5003519;28;20243;-72
2021/12/08 10:42:01;;;;;;;3.80;1.43;;;;;;;;;;5006172;28;20532;-72
2021/12/08 10:44:56;;;;;;;4.83;1.60;;;;;;;;;;5000117;28;20527;-72
2021/12/08 10:47:29;;;;;;;11.67;2.20;;;;;;;;;;5006017;28;20713;-70
2021/12/08 10:55:55;;;;;;;7.00;1.53;;;;;;;;;;5009673;28;20213;-71
2021/12/08 10:58:24;;;;;;;10.57;1.60;;;;;;;;;;4999762;28;20477;-71
2021/12/08 11:00:51;;;;;;;5.53;1.80;;;;;;;;;;5014483;28;20244;-71
2021/12/08 11:03:16;;;;;;;8.97;1.57;;;;;;;;;;5012338;28;20232;-72
2021/12/08 11:05:46;;;;;;;8.03;1.50;;;;;;;;;;5005175;28;20214;-72
2021/12/08 11:08:19;;;;;;;9.63;2.13;;;;;;;;;;5000587;28;20191;-72
2021/12/08 11:11:02;;;;;;;9.87;2.17;;;;;;;;;;4996646;28;20194;-72
2021/12/08 11:13:31;;;;;;;7.07;1.73;;;;;;;;;;5005082;28;20213;-72
2021/12/08 11:16:08;;;;;;;5.40;1.70;;;;;;;;;;4997545;28;20531;-72
2021/12/08 11:18:39;;;;;;;12.93;2.60;;;;;;;;;;5005506;28;20229;-72
2021/12/08 11:21:21;;;;;;;8.57;1.90;;;;;;;;;;5008533;28;20191;-72
2021/12/08 11:23:50;;;;;;;7.30;1.90;;;;;;;;;;5006068;28;20183;-72
2021/12/08 11:26:24;;;;;;;24.17;2.53;;;;;;;;;;4996906;28;20281;-72
2021/12/08 11:29:00;;;;;;;5.33;1.70;;;;;;;;;;4993716;28;20189;-72
2021/12/08 11:31:30;;;;;;;6.47;1.73;;;;;;;;;;4995956;28;20609;-72
2021/12/08 11:34:04;;;;;;;9.60;1.60;;;;;;;;;;4998247;28;20246;-72
2021/12/08 11:36:33;;;;;;;7.77;2.00;;;;;;;;;;4990619;28;20538;-73
2021/12/08 11:39:07;;;;;;;6.83;1.63;;;;;;;;;;4997435;28;20551;-72
2021/12/08 11:41:36;;;;;;;7.87;1.53;;;;;;;;;;4993413;28;20458;-73
2021/12/08 11:44:21;;;;;;;9.47;1.70;;;;;;;;;;5001143;28;20179;-73
2021/12/08 11:47:00;;;;;;;9.33;1.80;;;;;;;;;;4995483;28;20305;-73
2021/12/08 11:49:27;;;;;;;8.30;2.30;;;;;;;;;;5009299;28;20198;-72
2021/12/08 11:52:09;;;;;;;6.37;1.73;;;;;;;;;;4992483;28;20189;-72
2021/12/08 11:54:43;;;;;;;8.47;1.83;;;;;;;;;;5005709;28;20214;-72
2021/12/08 11:57:19;;;;;;;14.67;2.37;;;;;;;;;;4999239;28;20222;-72
2021/12/08 11:59:58;;;;;;;11.93;2.00;;;;;;;;;;5000769;28;20193;-72
2021/12/08 12:02:30;;;;;;;11.87;2.03;;;;;;;;;;5002723;28;20520;-72
2021/12/08 12:04:56;;;;;;;10.03;1.90;;;;;;;;;;5006103;28;20594;-72
2021/12/08 12:07:22;;;;;;;12.37;2.17;;;;;;;;;;5002658;28;20186;-72
2021/12/08 12:09:48;;;;;;;11.20;1.93;;;;;;;;;;5000774;28;20216;-73
2021/12/08 12:12:14;;;;;;;9.80;1.87;;;;;;;;;;5005048;28;20191;-72
2021/12/08 12:14:40;;;;;;;5.70;1.13;;;;;;;;;;4999151;28;20240;-72
2021/12/08 12:17:06;;;;;;;5.07;1.57;;;;;;;;;;5004230;28;20705;-72
2021/12/08 12:19:38;;;;;;;8.53;1.30;;;;;;;;;;4990796;28;20191;-72
2021/12/08 12:22:19;;;;;;;5.80;1.20;;;;;;;;;;5004310;28;20222;-72
2021/12/08 12:25:09;;;;;;;7.70;1.50;;;;;;;;;;4997834;28;20197;-72
2021/12/08 12:27:54;;;;;;;8.77;1.30;;;;;;;;;;5007408;28;20187;-72
2021/12/08 12:30:48;;;;;;;7.73;1.53;;;;;;;;;;5005840;28;20202;-71
2021/12/08 12:33:17;;;;;;;10.60;1.40;;;;;;;;;;4998349;28;20221;-71
2021/12/08 12:35:57;;;;;;;5.27;1.20;;;;;;;;;;5008974;28;20221;-71
2021/12/08 12:38:39;;;;;;;8.10;1.40;;;;;;;;;;5002772;28;20524;-71
2021/12/08 12:41:07;;;;;;;8.40;1.30;;;;;;;;;;5010906;28;20194;-72
2021/12/08 12:43:39;;;;;;;11.03;2.17;;;;;;;;;;5007171;28;20356;-72
2021/12/08 12:46:09;;;;;;;10.73;1.37;;;;;;;;;;5014322;28;20210;-72
2021/12/08 12:48:37;;;;;;;6.47;1.23;;;;;;;;;;5007583;28;20264;-72
2021/12/08 12:51:02;;;;;;;10.63;1.83;;;;;;;;;;5004053;28;20634;-72
2021/12/08 12:53:54;;;;;;;3.73;1.13;;;;;;;;;;5010540;28;20336;-71
2021/12/08 12:56:34;;;;;;;8.80;1.17;;;;;;;;;;5003454;28;20313;-71
2021/12/08 12:59:11;;;;;;;8.90;1.50;;;;;;;;;;5012366;28;20182;-71
2021/12/08 13:01:43;;;;;;;6.50;1.40;;;;;;;;;;5002101;28;20198;-71
2021/12/08 13:04:30;;;;;;;4.50;1.07;;;;;;;;;;5009303;28;20167;-71
2021/12/08 13:07:04;;;;;;;6.03;0.90;;;;;;;;;;4998867;28;20769;-72
2021/12/08 13:09:33;;;;;;;5.73;1.77;;;;;;;;;;5008314;28;20193;-72
2021/12/08 13:12:12;;;;;;;6.77;1.50;;;;;;;;;;4998688;28;20191;-72
2021/12/08 13:14:39;;;;;;;6.13;1.53;;;;;;;;;;5004754;28;20187;-71
2021/12/08 13:17:07;;;;;;;4.63;1.10;;;;;;;;;;4999851;28;20225;-71
2021/12/08 13:19:41;;;;;;;8.80;1.40;;;;;;;;;;5003400;28;20195;-71
2021/12/08 13:22:07;;;;;;;8.07;1.70;;;;;;;;;;4311788;28;10000835;-71
2021/12/08 13:24:41;;;;;;;6.23;1.20;;;;;;;;;;5004743;28;20227;-71
2021/12/08 13:27:10;;;;;;;7.77;1.80;;;;;;;;;;4998032;28;20190;-71
2021/12/08 13:29:40;;;;;;;7.93;1.23;;;;;;;;;;5005909;28;20297;-71
2021/12/08 13:32:13;;;;;;;7.73;1.37;;;;;;;;;;5005381;28;20713;-71
2021/12/08 13:34:55;;;;;;;4.13;1.77;;;;;;;;;;5005090;28;20683;-71
2021/12/08 13:37:25;;;;;;;9.10;1.53;;;;;;;;;;4998880;28;20201;-71
2021/12/08 13:39:53;;;;;;;7.03;1.50;;;;;;;;;;5005558;28;20480;-70
2021/12/08 13:42:28;;;;;;;7.43;1.30;;;;;;;;;;4998031;28;20245;-71
2021/12/08 13:45:03;;;;;;;10.20;1.63;;;;;;;;;;5004805;28;20194;-71
2021/12/08 13:47:32;;;;;;;6.80;1.30;;;;;;;;;;4999767;28;20190;-71
2021/12/08 13:50:03;;;;;;;6.83;1.50;;;;;;;;;;5001965;28;20183;-71
2021/12/08 13:52:37;;;;;;;6.70;1.30;;;;;;;;;;5000699;28;20210;-71
2021/12/08 13:55:19;;;;;;;7.33;1.47;;;;;;;;;;5007231;28;20301;-71
2021/12/08 13:58:11;;;;;;;5.27;1.53;;;;;;;;;;4995609;28;20751;-70
2021/12/08 14:00:54;;;;;;;8.47;1.70;;;;;;;;;;5006008;28;20190;-72
2021/12/08 14:03:33;;;;;;;6.40;1.33;;;;;;;;;;4995304;28;20218;-71
2021/12/08 14:05:59;;;;;;;8.93;2.40;;;;;;;;;;5009709;28;20589;-71
2021/12/08 14:08:29;;;;;;;7.00;1.63;;;;;;;;;;4994734;28;20212;-71
2021/12/08 14:11:02;;;;;;;8.10;1.40;;;;;;;;;;4998643;28;20194;-71
2021/12/08 14:13:30;;;;;;;4.57;1.17;;;;;;;;;;4991858;28;20215;-72
2021/12/08 14:16:04;;;;;;;5.83;1.20;;;;;;;;;;4997705;28;20203;-70
2021/12/08 14:18:35;;;;;;;8.33;1.80;;;;;;;;;;4988098;28;20230;-70
2021/12/08 14:21:08;;;;;;;8.97;1.87;;;;;;;;;;4998976;28;20288;-71
2021/12/08 14:23:39;;;;;;;5.93;1.30;;;;;;;;;;4999715;28;20835;-71
2021/12/08 14:26:26;;;;;;;3.13;1.20;;;;;;;;;;4997382;28;20195;-72
2021/12/08 14:28:59;;;;;;;6.43;1.57;;;;;;;;;;4995551;28;20202;-72
2021/12/08 14:31:28;;;;;;;3.17;1.13;;;;;;;;;;4999027;28;20661;-73
2021/12/08 14:33:57;;;;;;;7.30;1.10;;;;;;;;;;4997289;28;20664;-72
2021/12/08 14:36:39;;;;;;;8.87;2.03;;;;;;;;;;4991977;28;20325;-72
2021/12/08 14:39:08;;;;;;;13.83;1.57;;;;;;;;;;5013161;28;20190;-72
2021/12/08 14:41:35;;;;;;;5.20;1.23;;;;;;;;;;4995088;28;20203;-71
2021/12/08 14:44:16;;;;;;;4.43;1.10;;;;;;;;;;5006539;28;20213;-71
2021/12/08 14:46:44;;;;;;;3.50;1.03;;;;;;;;;;4992491;28;20210;-71
2021/12/08 14:49:12;;;;;;;7.50;1.20;;;;;;;;;;5007778;28;20183;-72
2021/12/08 14:51:39;;;;;;;6.63;1.33;;;;;;;;;;4995802;28;20233;-71
2021/12/08 14:54:33;;;;;;;6.10;1.10;;;;;;;;;;5003058;28;20734;-71
2021/12/08 14:57:08;;;;;;;4.43;1.17;;;;;;;;;;4988807;28;20206;-71
2021/12/08 14:59:39;;;;;;;5.87;1.47;;;;;;;;;;5003854;28;20232;-71
2021/12/08 15:02:05;;;;;;;5.50;0.90;;;;;;;;;;4994545;28;20194;-71
2021/12/08 15:04:31;;;;;;;7.23;1.10;;;;;;;;;;5003318;28;20197;-71
2021/12/08 15:07:00;;;;;;;4.33;1.37;;;;;;;;;;5002254;28;20580;-72
2021/12/08 15:09:27;;;;;;;4.20;1.30;;;;;;;;;;5002881;28;20553;-71
2021/12/08 15:11:54;;;;;;;5.53;1.47;;;;;;;;;;4997506;28;20197;-71
2021/12/08 15:14:21;;;;;;;5.83;1.20;;;;;;;;;;5009872;28;20209;-72
2021/12/08 15:16:51;;;;;;;7.00;1.30;;;;;;;;;;4995600;28;20302;-71
2021/12/08 15:19:18;;;;;;;6.77;1.37;;;;;;;;;;5006936;28;20844;-71
2021/12/08 15:21:49;;;;;;;10.17;1.53;;;;;;;;;;4998254;28;20211;-71
2021/12/08 15:24:21;;;;;;;8.83;1.70;;;;;;;;;;5003139;28;20266;-70
2021/12/08 15:26:48;;;;;;;6.90;1.63;;;;;;;;;;5002631;28;20197;-72
2021/12/08 15:29:21;;;;;;;4.70;1.70;;;;;;;;;;4993802;28;20190;-71
2021/12/08 15:31:51;;;;;;;6.73;1.83;;;;;;;;;;5005953;28;20613;-71
2021/12/08 15:34:33;;;;;;;7.40;1.50;;;;;;;;;;4994766;28;20210;-71
2021/12/08 15:37:16;;;;;;;4.70;1.53;;;;;;;;;;5002782;28;20178;-71
2021/12/08 15:39:43;;;;;;;5.70;1.77;;;;;;;;;;4997379;28;20221;-71
2021/12/08 15:42:12;;;;;;;9.03;1.93;;;;;;;;;;5004272;28;20191;-70
2021/12/08 15:44:39;;;;;;;8.53;1.50;;;;;;;;;;4995461;28;20322;-71
2021/12/08 15:47:06;;;;;;;7.73;1.63;;;;;;;;;;5002421;28;20512;-71
2021/12/08 15:49:34;;;;;;;7.97;1.53;;;;;;;;;;4996117;28;20271;-71
2021/12/08 15:52:09;;;;;;;10.17;2.10;;;;;;;;;;4995983;28;20228;-71
2021/12/08 15:54:37;;;;;;;14.40;2.10;;;;;;;;;;4995480;28;20638;-71
2021/12/08 15:57:05;;;;;;;5.53;1.20;;;;;;;;;;5004811;28;20528;-73
2021/12/08 15:59:38;;;;;;;6.67;1.93;;;;;;;;;;5000207;28;20742;-72